createdAt,value
2022-11-06T00:00:15.927Z,1003.56
2022-11-06T00:01:22.608Z,1003.62
2022-11-06T00:02:19.219Z,1003.63
2022-11-06T00:03:13.745Z,1003.58
2022-11-06T00:04:12.469Z,1003.55
2022-11-06T00:05:11.939Z,1003.52
2022-11-06T00:06:13.831Z,1003.55
2022-11-06T00:07:14.756Z,1003.51
2022-11-06T00:08:12.825Z,1003.54
2022-11-06T00:09:14.540Z,1003.50
2022-11-06T00:10:12.606Z,1003.49
2022-11-06T00:11:12.110Z,1003.53
2022-11-06T00:12:12.161Z,1003.51
2022-11-06T00:13:16.205Z,1003.46
2022-11-06T00:14:11.803Z,1003.48
2022-11-06T00:15:16.486Z,1003.47
2022-11-06T00:16:15.853Z,1003.51
2022-11-06T00:17:13.686Z,1003.49
2022-11-06T00:18:18.215Z,1003.49
2022-11-06T00:19:12.933Z,1003.51
2022-11-06T00:20:12.288Z,1003.49
2022-11-06T00:21:11.718Z,1003.50
2022-11-06T00:22:12.040Z,1003.52
2022-11-06T00:23:13.472Z,1003.49
2022-11-06T00:24:17.481Z,1003.50
2022-11-06T00:25:11.662Z,1003.49
2022-11-06T00:26:15.693Z,1003.48
2022-11-06T00:27:17.670Z,1003.48
2022-11-06T00:28:12.472Z,1003.56
2022-11-06T00:29:13.716Z,1003.55
2022-11-06T00:30:24.416Z,1003.50
2022-11-06T00:31:12.906Z,1003.52
2022-11-06T00:32:12.783Z,1003.54
2022-11-06T00:33:14.706Z,1003.51
2022-11-06T00:34:34.715Z,1003.56
2022-11-06T00:35:15.515Z,1003.52
2022-11-06T00:36:25.746Z,1003.48
2022-11-06T00:37:32.346Z,1003.46
2022-11-06T00:38:24.996Z,1003.47
2022-11-06T00:39:11.475Z,1003.45
2022-11-06T00:40:12.134Z,1003.49
2022-11-06T00:41:12.334Z,1003.48
2022-11-06T00:42:12.499Z,1003.49
2022-11-06T00:43:11.428Z,1003.46
2022-11-06T00:44:11.696Z,1003.52
2022-11-06T00:45:11.406Z,1003.50
2022-11-06T00:46:11.400Z,1003.50
2022-11-06T00:47:11.364Z,1003.50
2022-11-06T00:48:11.632Z,1003.49
2022-11-06T00:49:11.349Z,1003.50
2022-11-06T00:50:12.208Z,1003.51
2022-11-06T00:51:12.178Z,1003.52
2022-11-06T00:52:12.049Z,1003.50
2022-11-06T00:53:11.419Z,1003.47
2022-11-06T00:54:18.009Z,1003.52
2022-11-06T00:55:11.279Z,1003.49
2022-11-06T00:56:11.756Z,1003.47
2022-11-06T00:57:12.479Z,1003.42
2022-11-06T00:58:12.116Z,1003.40
2022-11-06T00:59:11.212Z,1003.41
2022-11-06T01:00:13.761Z,1003.41
2022-11-06T01:01:12.640Z,1003.42
2022-11-06T01:02:15.231Z,1003.46
2022-11-06T01:03:11.203Z,1003.41
2022-11-06T01:04:14.923Z,1003.40
2022-11-06T01:05:12.244Z,1003.42
2022-11-06T01:06:13.182Z,1003.42
2022-11-06T01:07:12.523Z,1003.38
2022-11-06T01:08:14.743Z,1003.39
2022-11-06T01:09:15.383Z,1003.37
2022-11-06T01:10:11.067Z,1003.35
2022-11-06T01:11:12.052Z,1003.32
2022-11-06T01:12:13.215Z,1003.34
2022-11-06T01:13:11.041Z,1003.30
2022-11-06T01:14:12.950Z,1003.31
2022-11-06T01:15:11.560Z,1003.37
2022-11-06T01:16:12.463Z,1003.34
2022-11-06T01:17:13.886Z,1003.38
2022-11-06T01:18:14.281Z,1003.36
2022-11-06T01:19:11.229Z,1003.36
2022-11-06T01:20:12.511Z,1003.36
2022-11-06T01:21:10.943Z,1003.37
2022-11-06T01:22:13.815Z,1003.34
2022-11-06T01:23:13.702Z,1003.38
2022-11-06T01:24:11.089Z,1003.39
2022-11-06T01:25:11.392Z,1003.41
2022-11-06T01:26:28.867Z,1003.42
2022-11-06T01:27:32.619Z,1003.38
2022-11-06T01:28:12.544Z,1003.45
2022-11-06T01:29:10.920Z,1003.38
2022-11-06T01:30:10.806Z,1003.42
2022-11-06T01:31:12.195Z,1003.41
2022-11-06T01:32:10.780Z,1003.41
2022-11-06T01:33:15.662Z,1003.42
2022-11-06T01:34:17.058Z,1003.37
2022-11-06T01:35:14.921Z,1003.38
2022-11-06T01:36:13.762Z,1003.38
2022-11-06T01:37:14.982Z,1003.36
2022-11-06T01:38:11.748Z,1003.40
2022-11-06T01:39:13.427Z,1003.38
2022-11-06T01:40:10.726Z,1003.36
2022-11-06T01:41:24.088Z,1003.36
2022-11-06T01:42:16.676Z,1003.34
2022-11-06T01:43:11.483Z,1003.31
2022-11-06T01:44:12.374Z,1003.28
2022-11-06T01:45:13.820Z,1003.28
2022-11-06T01:46:14.207Z,1003.22
2022-11-06T01:47:12.053Z,1003.24
2022-11-06T01:48:21.219Z,1003.25
2022-11-06T01:49:10.818Z,1003.21
2022-11-06T01:50:14.849Z,1003.23
2022-11-06T01:51:11.124Z,1003.20
2022-11-06T01:52:12.585Z,1003.17
2022-11-06T01:53:11.447Z,1003.17
2022-11-06T01:54:13.922Z,1003.22
2022-11-06T01:55:10.493Z,1003.17
2022-11-06T01:56:12.160Z,1003.15
2022-11-06T01:57:10.503Z,1003.15
2022-11-06T01:58:13.226Z,1003.13
2022-11-06T01:59:12.915Z,1003.13
2022-11-06T02:00:12.779Z,1003.15
2022-11-06T02:01:19.475Z,1003.14
2022-11-06T02:02:13.689Z,1003.14
2022-11-06T02:04:21.168Z,1003.05
2022-11-06T02:05:26.076Z,1003.05
2022-11-06T02:06:23.259Z,1003.05
2022-11-06T02:07:22.008Z,1003.03
2022-11-06T02:08:30.674Z,1003.00
2022-11-06T02:09:25.478Z,1003.00
2022-11-06T02:10:21.915Z,1003.00
2022-11-06T02:11:24.305Z,1003.02
2022-11-06T02:12:21.048Z,1003.02
2022-11-06T02:13:24.504Z,1002.97
2022-11-06T02:14:31.085Z,1002.94
2022-11-06T02:15:38.745Z,1002.96
2022-11-06T02:16:22.631Z,1002.97
2022-11-06T02:17:24.100Z,1002.93
2022-11-06T02:18:27.105Z,1002.93
2022-11-06T02:19:23.422Z,1002.87
2022-11-06T02:20:27.991Z,1002.88
2022-11-06T02:21:20.931Z,1002.88
2022-11-06T02:22:26.272Z,1002.87
2022-11-06T02:23:37.032Z,1002.88
2022-11-06T02:24:29.593Z,1002.88
2022-11-06T02:25:22.883Z,1002.85
2022-11-06T02:26:25.332Z,1002.88
2022-11-06T02:27:22.122Z,1002.82
2022-11-06T02:28:30.783Z,1002.89
2022-11-06T02:29:21.800Z,1002.88
2022-11-06T02:30:23.563Z,1002.87
2022-11-06T02:31:22.690Z,1002.83
2022-11-06T02:32:38.573Z,1002.83
2022-11-06T02:33:22.473Z,1002.83
2022-11-06T02:34:21.851Z,1002.85
2022-11-06T02:35:21.244Z,1002.82
2022-11-06T02:36:28.388Z,1002.82
2022-11-06T02:37:32.919Z,1002.84
2022-11-06T02:38:46.805Z,1002.82
2022-11-06T02:39:21.899Z,1002.83
2022-11-06T02:40:21.804Z,1002.80
2022-11-06T02:41:35.111Z,1002.81
2022-11-06T02:42:21.056Z,1002.78
2022-11-06T02:43:44.710Z,1002.76
2022-11-06T02:44:33.752Z,1002.71
2022-11-06T02:45:39.876Z,1002.76
2022-11-06T02:46:54.795Z,1002.72
2022-11-06T02:47:21.122Z,1002.67
2022-11-06T02:48:33.441Z,1002.63
2022-11-06T02:49:37.034Z,1002.63
2022-11-06T02:50:25.519Z,1002.67
2022-11-06T02:51:29.068Z,1002.66
2022-11-06T02:53:12.337Z,1002.64
2022-11-06T02:53:35.567Z,1002.67
2022-11-06T02:55:16.229Z,1002.69
2022-11-06T02:55:24.996Z,1002.69
2022-11-06T02:56:38.277Z,1002.65
2022-11-06T02:57:34.549Z,1002.70
2022-11-06T02:58:26.189Z,1002.68
2022-11-06T02:59:37.967Z,1002.65
2022-11-06T03:00:38.388Z,1002.66
2022-11-06T03:01:24.935Z,1002.64
2022-11-06T03:02:24.870Z,1002.64
2022-11-06T03:03:44.247Z,1002.64
2022-11-06T03:04:28.164Z,1002.57
2022-11-06T03:05:45.382Z,1002.59
2022-11-06T03:07:03.107Z,1002.60
2022-11-06T03:07:23.755Z,1002.59
2022-11-06T03:08:29.869Z,1002.61
2022-11-06T03:09:21.000Z,1002.62
2022-11-06T03:10:21.431Z,1002.66
2022-11-06T03:11:32.659Z,1002.64
2022-11-06T03:12:36.140Z,1002.64
2022-11-06T03:14:09.025Z,1002.65
2022-11-06T03:15:16.106Z,1002.67
2022-11-06T03:15:52.640Z,1002.66
2022-11-06T03:16:24.221Z,1002.66
2022-11-06T03:17:31.860Z,1002.65
2022-11-06T03:18:21.407Z,1002.70
2022-11-06T03:20:05.154Z,1002.70
2022-11-06T03:21:12.763Z,1002.71
2022-11-06T03:21:38.042Z,1002.72
2022-11-06T03:23:28.524Z,1002.67
2022-11-06T03:24:02.072Z,1002.69
2022-11-06T03:24:47.533Z,1002.69
2022-11-06T03:25:47.368Z,1002.69
2022-11-06T03:26:33.242Z,1002.74
2022-11-06T03:27:34.230Z,1002.76
2022-11-06T03:29:08.176Z,1002.72
2022-11-06T03:29:39.687Z,1002.72
2022-11-06T03:33:42.835Z,1002.70
2022-11-06T03:34:26.205Z,1002.68
2022-11-06T03:36:38.912Z,1002.69
2022-11-06T03:37:23.811Z,1002.69
2022-11-06T03:38:13.591Z,1002.71
2022-11-06T03:39:03.976Z,1002.71
2022-11-06T03:40:28.105Z,1002.70
2022-11-06T03:42:41.317Z,1002.73
2022-11-06T03:42:49.846Z,1002.70
2022-11-06T03:43:46.055Z,1002.69
2022-11-06T03:45:05.874Z,1002.63
2022-11-06T03:46:40.881Z,1002.63
2022-11-06T03:46:56.367Z,1002.65
2022-11-06T03:48:09.183Z,1002.59
2022-11-06T03:49:33.836Z,1002.60
2022-11-06T03:51:32.124Z,1002.61
2022-11-06T03:52:22.215Z,1002.63
2022-11-06T03:53:00.435Z,1002.62
2022-11-06T03:54:04.980Z,1002.61
2022-11-06T03:54:48.359Z,1002.62
2022-11-06T03:55:57.548Z,1002.62
2022-11-06T03:56:52.259Z,1002.72
2022-11-06T03:59:46.259Z,1002.69
2022-11-06T04:00:00.708Z,1002.68
2022-11-06T04:02:33.730Z,1002.71
2022-11-06T04:02:58.522Z,1002.69
2022-11-06T04:04:48.393Z,1002.64
2022-11-06T04:05:49.827Z,1002.67
2022-11-06T04:06:01.190Z,1002.63
2022-11-06T04:09:05.619Z,1002.64
2022-11-06T04:10:05.730Z,1002.63
2022-11-06T04:10:18.820Z,1002.63
2022-11-06T04:14:54.710Z,1002.61
2022-11-06T04:16:09.573Z,1002.61
2022-11-06T04:16:45.435Z,1002.59
2022-11-06T04:18:32.092Z,1002.61
2022-11-06T04:19:16.534Z,1002.56
2022-11-06T04:25:38.712Z,1002.60
2022-11-06T04:26:05.495Z,1002.47
2022-11-06T04:27:11.683Z,1002.48
2022-11-06T04:27:54.587Z,1002.47
2022-11-06T04:30:18.104Z,1002.42
2022-11-06T04:33:20.925Z,1002.43
2022-11-06T04:36:03.572Z,1002.37
2022-11-06T04:36:13.363Z,1002.37
2022-11-06T04:39:25.477Z,1002.31
2022-11-06T04:45:18.155Z,1002.30
2022-11-06T04:54:02.785Z,1002.31
2022-11-06T05:25:17.136Z,1002.36
2022-11-06T05:25:23.330Z,1002.22
2022-11-06T05:26:21.891Z,1002.23
2022-11-06T05:27:21.885Z,1002.21
2022-11-06T05:28:21.876Z,1002.18
2022-11-06T05:29:21.854Z,1002.15
2022-11-06T05:30:21.860Z,1002.13
2022-11-06T05:31:21.822Z,1002.06
2022-11-06T05:32:21.816Z,1002.06
2022-11-06T05:33:21.813Z,1002.06
2022-11-06T05:34:21.799Z,1002.04
2022-11-06T05:35:21.777Z,1002.06
2022-11-06T05:36:21.998Z,1002.03
2022-11-06T05:37:22.699Z,1002.04
2022-11-06T05:38:21.744Z,1002.06
2022-11-06T05:39:21.727Z,1002.09
2022-11-06T05:40:21.725Z,1002.02
2022-11-06T05:41:21.747Z,1002.06
2022-11-06T05:42:21.701Z,1002.03
2022-11-06T05:43:21.699Z,1002.06
2022-11-06T05:44:21.667Z,1002.05
2022-11-06T05:45:21.647Z,1002.05
2022-11-06T05:46:46.926Z,1002.03
2022-11-06T05:47:22.622Z,1002.01
2022-11-06T05:48:21.626Z,1002.04
2022-11-06T05:49:21.592Z,1001.99
2022-11-06T05:50:21.589Z,1002.02
2022-11-06T05:51:21.572Z,1002.03
2022-11-06T05:52:22.534Z,1002.04
2022-11-06T05:53:21.564Z,1002.02
2022-11-06T05:54:21.532Z,1002.07
2022-11-06T05:55:21.530Z,1002.09
2022-11-06T05:56:21.509Z,1002.11
2022-11-06T05:57:21.488Z,1002.09
2022-11-06T05:58:21.503Z,1002.08
2022-11-06T05:59:21.460Z,1002.07
2022-11-06T06:00:21.462Z,1002.06
2022-11-06T06:01:21.490Z,1002.08
2022-11-06T06:02:22.524Z,1002.09
2022-11-06T06:03:21.418Z,1002.09
2022-11-06T06:04:21.401Z,1002.06
2022-11-06T06:05:21.399Z,1002.07
2022-11-06T06:06:21.410Z,1002.11
2022-11-06T06:07:21.362Z,1002.08
2022-11-06T06:08:21.370Z,1002.10
2022-11-06T06:09:21.339Z,1002.09
2022-11-06T06:10:21.322Z,1002.09
2022-11-06T06:11:21.313Z,1002.07
2022-11-06T06:12:21.300Z,1002.10
2022-11-06T06:13:21.294Z,1002.11
2022-11-06T06:14:21.274Z,1002.12
2022-11-06T06:15:21.263Z,1002.15
2022-11-06T06:16:21.258Z,1002.15
2022-11-06T06:17:21.233Z,1002.16
2022-11-06T06:18:21.234Z,1002.18
2022-11-06T06:19:21.326Z,1002.19
2022-11-06T06:20:21.201Z,1002.23
2022-11-06T06:21:21.182Z,1002.19
2022-11-06T06:22:21.175Z,1002.23
2022-11-06T06:23:21.165Z,1002.26
2022-11-06T06:24:21.238Z,1002.25
2022-11-06T06:25:22.928Z,1002.29
2022-11-06T06:26:21.120Z,1002.35
2022-11-06T06:27:21.097Z,1002.32
2022-11-06T06:28:21.113Z,1002.33
2022-11-06T06:29:21.078Z,1002.37
2022-11-06T06:30:21.303Z,1002.35
2022-11-06T06:31:21.060Z,1002.39
2022-11-06T06:32:21.037Z,1002.42
2022-11-06T06:33:21.032Z,1002.39
2022-11-06T06:34:21.025Z,1002.43
2022-11-06T06:35:21.013Z,1002.50
2022-11-06T06:36:20.988Z,1002.47
2022-11-06T06:37:20.980Z,1002.50
2022-11-06T06:38:20.975Z,1002.56
2022-11-06T06:39:20.947Z,1002.57
2022-11-06T06:40:20.934Z,1002.58
2022-11-06T06:41:20.915Z,1002.61
2022-11-06T06:42:20.927Z,1002.54
2022-11-06T06:43:20.902Z,1002.65
2022-11-06T06:44:20.883Z,1002.67
2022-11-06T06:45:20.864Z,1002.63
2022-11-06T06:46:20.860Z,1002.63
2022-11-06T06:47:20.840Z,1002.59
2022-11-06T06:48:20.842Z,1002.59
2022-11-06T06:49:20.816Z,1002.54
2022-11-06T06:50:20.809Z,1002.57
2022-11-06T06:51:23.896Z,1002.57
2022-11-06T06:52:21.022Z,1002.57
2022-11-06T06:53:20.780Z,1002.62
2022-11-06T06:54:20.776Z,1002.60
2022-11-06T06:55:20.751Z,1002.62
2022-11-06T06:56:20.738Z,1002.63
2022-11-06T06:57:20.713Z,1002.63
2022-11-06T06:58:21.041Z,1002.60
2022-11-06T06:59:20.692Z,1002.59
2022-11-06T07:00:20.680Z,1002.61
2022-11-06T07:01:20.816Z,1002.60
2022-11-06T07:02:20.747Z,1002.58
2022-11-06T07:03:20.649Z,1002.57
2022-11-06T07:04:20.618Z,1002.58
2022-11-06T07:05:20.612Z,1002.56
2022-11-06T07:06:20.600Z,1002.56
2022-11-06T07:07:21.533Z,1002.53
2022-11-06T07:08:20.580Z,1002.53
2022-11-06T07:09:20.554Z,1002.49
2022-11-06T07:10:20.560Z,1002.52
2022-11-06T07:11:20.534Z,1002.52
2022-11-06T07:12:20.529Z,1002.56
2022-11-06T07:13:20.517Z,1002.51
2022-11-06T07:14:20.733Z,1002.55
2022-11-06T07:15:20.475Z,1002.58
2022-11-06T07:16:20.472Z,1002.55
2022-11-06T07:17:20.451Z,1002.52
2022-11-06T07:18:20.452Z,1002.55
2022-11-06T07:19:20.426Z,1002.52
2022-11-06T07:20:20.417Z,1002.55
2022-11-06T07:21:20.402Z,1002.53
2022-11-06T07:22:28.655Z,1002.57
2022-11-06T07:23:21.392Z,1002.62
2022-11-06T07:24:20.377Z,1002.54
2022-11-06T07:25:20.594Z,1002.58
2022-11-06T07:26:20.352Z,1002.59
2022-11-06T07:27:20.355Z,1002.60
2022-11-06T07:28:20.352Z,1002.58
2022-11-06T07:29:20.313Z,1002.56
2022-11-06T07:30:20.287Z,1002.52
2022-11-06T07:31:20.286Z,1002.51
2022-11-06T07:32:20.267Z,1002.60
2022-11-06T07:33:20.257Z,1002.53
2022-11-06T07:34:20.246Z,1002.53
2022-11-06T07:35:20.236Z,1002.50
2022-11-06T07:36:20.236Z,1002.51
2022-11-06T07:37:20.195Z,1002.57
2022-11-06T07:38:20.197Z,1002.52
2022-11-06T07:39:20.168Z,1002.52
2022-11-06T07:40:20.171Z,1002.51
2022-11-06T07:41:20.150Z,1002.52
2022-11-06T07:42:20.136Z,1002.56
2022-11-06T07:43:20.140Z,1002.50
2022-11-06T07:44:20.114Z,1002.54
2022-11-06T07:45:20.125Z,1002.52
2022-11-06T07:46:20.082Z,1002.52
2022-11-06T07:47:20.078Z,1002.48
2022-11-06T07:48:20.074Z,1002.45
2022-11-06T07:49:20.070Z,1002.44
2022-11-06T07:50:20.031Z,1002.41
2022-11-06T07:51:20.028Z,1002.42
2022-11-06T07:52:20.021Z,1002.40
2022-11-06T07:53:19.998Z,1002.40
2022-11-06T07:54:19.981Z,1002.36
2022-11-06T07:55:20.013Z,1002.38
2022-11-06T07:56:19.952Z,1002.38
2022-11-06T07:57:19.934Z,1002.40
2022-11-06T07:58:19.949Z,1002.43
2022-11-06T07:59:19.916Z,1002.43
2022-11-06T08:00:19.903Z,1002.43
2022-11-06T08:01:19.944Z,1002.44
2022-11-06T08:02:19.940Z,1002.42
2022-11-06T08:03:19.874Z,1002.47
2022-11-06T08:04:19.892Z,1002.41
2022-11-06T08:05:19.832Z,1002.36
2022-11-06T08:06:20.104Z,1002.42
2022-11-06T08:07:19.803Z,1002.35
2022-11-06T08:08:19.815Z,1002.39
2022-11-06T08:09:19.784Z,1002.38
2022-11-06T08:10:19.773Z,1002.34
2022-11-06T08:11:19.754Z,1002.30
2022-11-06T08:12:19.763Z,1002.33
2022-11-06T08:13:19.729Z,1002.31
2022-11-06T08:14:19.724Z,1002.38
2022-11-06T08:15:19.705Z,1002.30
2022-11-06T08:16:19.696Z,1002.33
2022-11-06T08:17:19.935Z,1002.34
2022-11-06T08:18:19.695Z,1002.33
2022-11-06T08:19:19.666Z,1002.34
2022-11-06T08:20:19.649Z,1002.32
2022-11-06T08:21:19.626Z,1002.36
2022-11-06T08:22:19.621Z,1002.28
2022-11-06T08:23:19.616Z,1002.29
2022-11-06T08:24:22.105Z,1002.24
2022-11-06T08:25:19.569Z,1002.26
2022-11-06T08:26:19.567Z,1002.24
2022-11-06T08:27:19.558Z,1002.18
2022-11-06T08:28:19.567Z,1002.24
2022-11-06T08:29:19.532Z,1002.26
2022-11-06T08:30:19.508Z,1002.18
2022-11-06T08:31:19.496Z,1002.16
2022-11-06T08:32:19.488Z,1002.24
2022-11-06T08:33:19.468Z,1002.21
2022-11-06T08:34:19.448Z,1002.20
2022-11-06T08:35:19.441Z,1002.16
2022-11-06T08:36:19.429Z,1002.19
2022-11-06T08:37:19.439Z,1002.17
2022-11-06T08:38:19.405Z,1002.14
2022-11-06T08:39:19.389Z,1002.19
2022-11-06T08:40:19.370Z,1002.18
2022-11-06T08:41:19.366Z,1002.16
2022-11-06T08:42:20.310Z,1002.15
2022-11-06T08:43:19.346Z,1002.14
2022-11-06T08:44:19.320Z,1002.11
2022-11-06T08:45:19.311Z,1002.18
2022-11-06T08:46:19.294Z,1002.12
2022-11-06T08:47:19.298Z,1002.13
2022-11-06T08:48:19.271Z,1002.19
2022-11-06T08:49:19.263Z,1002.12
2022-11-06T08:50:19.247Z,1002.16
2022-11-06T08:51:19.233Z,1002.16
2022-11-06T08:52:19.223Z,1002.14
2022-11-06T08:53:19.528Z,1002.13
2022-11-06T08:54:19.196Z,1002.17
2022-11-06T08:55:19.180Z,1002.16
2022-11-06T08:56:19.163Z,1002.12
2022-11-06T08:57:19.163Z,1002.09
2022-11-06T08:58:19.130Z,1002.10
2022-11-06T08:59:19.132Z,1002.12
2022-11-06T09:00:19.105Z,1002.11
2022-11-06T09:01:19.151Z,1002.07
2022-11-06T09:02:19.154Z,1002.03
2022-11-06T09:03:20.018Z,1002.00
2022-11-06T09:04:19.081Z,1002.01
2022-11-06T09:05:19.052Z,1001.97
2022-11-06T09:06:19.026Z,1001.91
2022-11-06T09:07:19.033Z,1001.91
2022-11-06T09:08:18.996Z,1001.93
2022-11-06T09:09:18.997Z,1001.93
2022-11-06T09:10:18.975Z,1001.91
2022-11-06T09:11:18.966Z,1001.90
2022-11-06T09:12:18.984Z,1001.85
2022-11-06T09:13:18.936Z,1001.89
2022-11-06T09:14:18.918Z,1001.85
2022-11-06T09:15:18.910Z,1001.86
2022-11-06T09:16:18.897Z,1001.89
2022-11-06T09:17:18.888Z,1001.81
2022-11-06T09:18:19.142Z,1001.82
2022-11-06T09:19:18.871Z,1001.81
2022-11-06T09:20:18.838Z,1001.74
2022-11-06T09:21:18.830Z,1001.76
2022-11-06T09:22:18.829Z,1001.76
2022-11-06T09:23:18.809Z,1001.72
2022-11-06T09:24:31.994Z,1001.74
2022-11-06T09:25:19.787Z,1001.67
2022-11-06T09:26:18.765Z,1001.70
2022-11-06T09:27:18.760Z,1001.69
2022-11-06T09:28:18.740Z,1001.66
2022-11-06T09:29:18.731Z,1001.64
2022-11-06T09:30:18.722Z,1001.62
2022-11-06T09:31:18.727Z,1001.58
2022-11-06T09:32:18.708Z,1001.54
2022-11-06T09:33:19.017Z,1001.52
2022-11-06T09:34:18.654Z,1001.55
2022-11-06T09:35:18.643Z,1001.50
2022-11-06T09:36:18.643Z,1001.57
2022-11-06T09:37:18.631Z,1001.58
2022-11-06T09:38:18.728Z,1001.57
2022-11-06T09:39:18.601Z,1001.54
2022-11-06T09:40:18.574Z,1001.50
2022-11-06T09:41:18.582Z,1001.50
2022-11-06T09:42:18.554Z,1001.50
2022-11-06T09:43:31.727Z,1001.48
2022-11-06T09:44:19.545Z,1001.48
2022-11-06T09:45:18.516Z,1001.49
2022-11-06T09:46:18.505Z,1001.46
2022-11-06T09:47:18.753Z,1001.46
2022-11-06T09:48:18.473Z,1001.46
2022-11-06T09:49:18.463Z,1001.45
2022-11-06T09:50:18.447Z,1001.45
2022-11-06T09:51:18.445Z,1001.42
2022-11-06T09:52:18.445Z,1001.43
2022-11-06T09:53:19.132Z,1001.42
2022-11-06T09:54:18.388Z,1001.41
2022-11-06T09:55:18.390Z,1001.39
2022-11-06T09:56:18.390Z,1001.41
2022-11-06T09:57:18.359Z,1001.43
2022-11-06T09:58:18.357Z,1001.41
2022-11-06T09:59:18.342Z,1001.39
2022-11-06T10:00:18.339Z,1001.38
2022-11-06T10:01:24.471Z,1001.34
2022-11-06T10:02:19.460Z,1001.37
2022-11-06T10:03:18.275Z,1001.34
2022-11-06T10:04:18.259Z,1001.33
2022-11-06T10:05:18.254Z,1001.34
2022-11-06T10:06:18.248Z,1001.32
2022-11-06T10:07:18.218Z,1001.25
2022-11-06T10:08:18.207Z,1001.25
2022-11-06T10:09:18.190Z,1001.23
2022-11-06T10:10:18.179Z,1001.25
2022-11-06T10:11:18.176Z,1001.22
2022-11-06T10:12:18.152Z,1001.23
2022-11-06T10:13:18.201Z,1001.24
2022-11-06T10:14:18.127Z,1001.18
2022-11-06T10:15:18.131Z,1001.17
2022-11-06T10:16:18.111Z,1001.11
2022-11-06T10:17:18.087Z,1001.12
2022-11-06T10:18:18.076Z,1001.12
2022-11-06T10:19:18.062Z,1001.07
2022-11-06T10:20:20.923Z,1001.05
2022-11-06T10:21:19.033Z,1001.06
2022-11-06T10:22:18.015Z,1001.11
2022-11-06T10:23:18.013Z,1001.10
2022-11-06T10:24:17.991Z,1001.08
2022-11-06T10:25:17.994Z,1001.06
2022-11-06T10:26:17.975Z,1001.03
2022-11-06T10:27:17.953Z,1001.02
2022-11-06T10:28:17.935Z,1001.01
2022-11-06T10:29:17.942Z,1001.02
2022-11-06T10:30:17.922Z,1001.01
2022-11-06T10:31:17.911Z,1001.05
2022-11-06T10:32:17.885Z,1001.00
2022-11-06T10:33:17.875Z,1000.99
2022-11-06T10:34:17.857Z,1000.93
2022-11-06T10:35:17.856Z,1000.92
2022-11-06T10:36:18.003Z,1000.90
2022-11-06T10:37:17.825Z,1000.89
2022-11-06T10:38:17.950Z,1000.94
2022-11-06T10:39:17.797Z,1000.88
2022-11-06T10:40:17.819Z,1000.87
2022-11-06T10:41:17.787Z,1000.89
2022-11-06T10:42:17.757Z,1000.88
2022-11-06T10:43:17.745Z,1000.88
2022-11-06T10:44:17.738Z,1000.86
2022-11-06T10:45:17.973Z,1000.87
2022-11-06T10:46:17.706Z,1000.87
2022-11-06T10:47:17.699Z,1000.89
2022-11-06T10:48:17.676Z,1000.88
2022-11-06T10:49:17.671Z,1000.90
2022-11-06T10:50:17.660Z,1000.87
2022-11-06T10:51:17.653Z,1000.87
2022-11-06T10:52:17.875Z,1000.86
2022-11-06T10:53:17.610Z,1000.76
2022-11-06T10:54:17.599Z,1000.77
2022-11-06T10:55:17.601Z,1000.77
2022-11-06T10:56:21.089Z,1000.73
2022-11-06T10:57:18.531Z,1000.72
2022-11-06T10:58:17.607Z,1000.68
2022-11-06T10:59:17.543Z,1000.69
2022-11-06T11:00:17.522Z,1000.65
2022-11-06T11:01:17.557Z,1000.66
2022-11-06T11:02:17.561Z,1000.67
2022-11-06T11:03:17.485Z,1000.63
2022-11-06T11:04:17.463Z,1000.66
2022-11-06T11:05:17.475Z,1000.63
2022-11-06T11:06:17.456Z,1000.62
2022-11-06T11:07:21.544Z,1000.57
2022-11-06T11:08:17.426Z,1000.58
2022-11-06T11:09:17.402Z,1000.55
2022-11-06T11:10:17.399Z,1000.53
2022-11-06T11:11:17.384Z,1000.52
2022-11-06T11:12:17.356Z,1000.52
2022-11-06T11:13:17.356Z,1000.53
2022-11-06T11:14:17.336Z,1000.45
2022-11-06T11:15:17.338Z,1000.43
2022-11-06T11:16:17.317Z,1000.42
2022-11-06T11:17:17.308Z,1000.43
2022-11-06T11:18:17.605Z,1000.38
2022-11-06T11:19:17.281Z,1000.39
2022-11-06T11:20:17.267Z,1000.37
2022-11-06T11:21:17.248Z,1000.36
2022-11-06T11:22:17.233Z,1000.36
2022-11-06T11:23:17.295Z,1000.37
2022-11-06T11:24:17.209Z,1000.35
2022-11-06T11:25:17.210Z,1000.37
2022-11-06T11:26:17.179Z,1000.31
2022-11-06T11:27:17.171Z,1000.28
2022-11-06T11:28:17.231Z,1000.25
2022-11-06T11:29:18.099Z,1000.21
2022-11-06T11:30:17.244Z,1000.24
2022-11-06T11:31:18.080Z,1000.23
2022-11-06T11:32:17.110Z,1000.19
2022-11-06T11:33:17.089Z,1000.20
2022-11-06T11:34:17.087Z,1000.18
2022-11-06T11:35:18.031Z,1000.16
2022-11-06T11:36:17.992Z,1000.10
2022-11-06T11:37:17.039Z,1000.09
2022-11-06T11:38:17.402Z,1000.03
2022-11-06T11:39:18.210Z,1000.07
2022-11-06T11:40:17.004Z,1000.00
2022-11-06T11:41:16.982Z,999.99
2022-11-06T11:42:17.927Z,999.98
2022-11-06T11:43:17.224Z,1000.01
2022-11-06T11:44:17.904Z,1000.00
2022-11-06T11:45:16.933Z,999.93
2022-11-06T11:46:16.915Z,999.93
2022-11-06T11:47:17.862Z,999.93
2022-11-06T11:48:17.169Z,999.91
2022-11-06T11:49:16.897Z,999.86
2022-11-06T11:50:17.887Z,999.86
2022-11-06T11:51:16.865Z,999.83
2022-11-06T11:52:16.835Z,999.80
2022-11-06T11:53:16.828Z,999.77
2022-11-06T11:54:17.773Z,999.75
2022-11-06T11:55:17.770Z,999.78
2022-11-06T11:56:22.887Z,999.74
2022-11-06T11:57:18.996Z,999.73
2022-11-06T11:58:16.767Z,999.71
2022-11-06T11:59:16.766Z,999.65
2022-11-06T12:00:17.783Z,999.67
2022-11-06T12:01:16.730Z,999.62
2022-11-06T12:02:17.631Z,999.61
2022-11-06T12:03:16.751Z,999.60
2022-11-06T12:04:16.689Z,999.60
2022-11-06T12:05:17.627Z,999.53
2022-11-06T12:06:17.610Z,999.50
2022-11-06T12:07:17.600Z,999.53
2022-11-06T12:08:16.847Z,999.50
2022-11-06T12:09:17.581Z,999.51
2022-11-06T12:10:16.624Z,999.55
2022-11-06T12:11:16.601Z,999.53
2022-11-06T12:12:16.572Z,999.52
2022-11-06T12:13:16.571Z,999.50
2022-11-06T12:14:17.509Z,999.51
2022-11-06T12:15:17.489Z,999.51
2022-11-06T12:16:16.533Z,999.48
2022-11-06T12:17:16.585Z,999.45
2022-11-06T12:18:16.681Z,999.42
2022-11-06T12:19:17.454Z,999.46
2022-11-06T12:20:16.469Z,999.38
2022-11-06T12:21:16.480Z,999.43
2022-11-06T12:22:16.451Z,999.43
2022-11-06T12:23:16.459Z,999.46
2022-11-06T12:24:17.375Z,999.41
2022-11-06T12:25:16.422Z,999.38
2022-11-06T12:26:16.387Z,999.41
2022-11-06T12:27:16.386Z,999.43
2022-11-06T12:28:16.657Z,999.40
2022-11-06T12:29:16.376Z,999.39
2022-11-06T12:30:17.315Z,999.42
2022-11-06T12:31:16.335Z,999.36
2022-11-06T12:32:16.315Z,999.28
2022-11-06T12:33:17.267Z,999.30
2022-11-06T12:34:17.823Z,999.33
2022-11-06T12:35:16.283Z,999.40
2022-11-06T12:36:16.258Z,999.35
2022-11-06T12:37:16.267Z,999.35
2022-11-06T12:38:16.539Z,999.40
2022-11-06T12:39:16.219Z,999.27
2022-11-06T12:40:18.479Z,999.31
2022-11-06T12:41:17.198Z,999.34
2022-11-06T12:42:16.189Z,999.30
2022-11-06T12:43:16.180Z,999.34
2022-11-06T12:44:16.163Z,999.25
2022-11-06T12:45:16.153Z,999.25
2022-11-06T12:46:16.139Z,999.31
2022-11-06T12:47:16.121Z,999.28
2022-11-06T12:48:16.309Z,999.26
2022-11-06T12:49:16.086Z,999.27
2022-11-06T12:50:16.083Z,999.12
2022-11-06T12:51:16.061Z,999.14
2022-11-06T12:52:16.051Z,999.15
2022-11-06T12:53:16.060Z,999.19
2022-11-06T12:54:16.028Z,999.11
2022-11-06T12:55:16.027Z,999.08
2022-11-06T12:56:16.007Z,999.12
2022-11-06T12:57:15.984Z,999.02
2022-11-06T12:58:16.303Z,998.99
2022-11-06T12:59:15.964Z,998.89
2022-11-06T13:00:15.953Z,998.91
2022-11-06T13:01:15.990Z,998.86
2022-11-06T13:02:17.012Z,998.83
2022-11-06T13:03:15.924Z,998.81
2022-11-06T13:04:15.922Z,998.84
2022-11-06T13:05:16.136Z,998.84
2022-11-06T13:06:15.867Z,998.86
2022-11-06T13:07:15.856Z,998.82
2022-11-06T13:08:16.149Z,998.79
2022-11-06T13:09:16.792Z,998.79
2022-11-06T13:10:15.825Z,998.74
2022-11-06T13:11:15.796Z,998.76
2022-11-06T13:12:15.796Z,998.75
2022-11-06T13:13:15.804Z,998.79
2022-11-06T13:14:15.767Z,998.84
2022-11-06T13:15:15.769Z,998.85